sensor_id;sensor_type;location;lat;lon;timestamp;P1;durP1;ratioP1;P2;durP2;ratioP2
4462;SDS011;2244;50.200;8.220;2023-08-06T00:00:30;20.37;;;7.07;;
4462;SDS011;2244;50.200;8.220;2023-08-06T00:02:58;16.63;;;5.93;;
4462;SDS011;2244;50.200;8.220;2023-08-06T00:05:25;17.40;;;6.03;;
4462;SDS011;2244;50.200;8.220;2023-08-06T00:07:53;18.33;;;6.50;;
4462;SDS011;2244;50.200;8.220;2023-08-06T00:10:21;17.00;;;5.93;;
4462;SDS011;2244;50.200;8.220;2023-08-06T00:12:48;15.57;;;5.47;;
4462;SDS011;2244;50.200;8.220;2023-08-06T00:15:16;16.90;;;6.00;;
4462;SDS011;2244;50.200;8.220;2023-08-06T00:17:44;19.30;;;6.70;;
4462;SDS011;2244;50.200;8.220;2023-08-06T00:20:11;16.57;;;6.00;;
4462;SDS011;2244;50.200;8.220;2023-08-06T00:22:40;18.47;;;5.97;;
4462;SDS011;2244;50.200;8.220;2023-08-06T00:25:07;16.37;;;5.70;;
4462;SDS011;2244;50.200;8.220;2023-08-06T00:27:35;22.67;;;6.20;;
4462;SDS011;2244;50.200;8.220;2023-08-06T00:30:02;17.20;;;6.00;;
4462;SDS011;2244;50.200;8.220;2023-08-06T00:32:30;19.20;;;5.50;;
4462;SDS011;2244;50.200;8.220;2023-08-06T00:34:58;21.63;;;6.07;;
4462;SDS011;2244;50.200;8.220;2023-08-06T00:37:25;18.23;;;5.73;;
4462;SDS011;2244;50.200;8.220;2023-08-06T00:39:53;19.50;;;6.00;;
4462;SDS011;2244;50.200;8.220;2023-08-06T00:42:20;15.57;;;5.17;;
4462;SDS011;2244;50.200;8.220;2023-08-06T00:44:48;16.50;;;5.90;;
4462;SDS011;2244;50.200;8.220;2023-08-06T00:47:16;16.50;;;6.13;;
4462;SDS011;2244;50.200;8.220;2023-08-06T00:49:43;14.53;;;5.00;;
4462;SDS011;2244;50.200;8.220;2023-08-06T00:52:11;16.40;;;5.33;;
4462;SDS011;2244;50.200;8.220;2023-08-06T00:54:40;17.43;;;4.80;;
4462;SDS011;2244;50.200;8.220;2023-08-06T00:57:08;16.97;;;5.97;;
4462;SDS011;2244;50.200;8.220;2023-08-06T00:59:36;17.23;;;5.00;;
4462;SDS011;2244;50.200;8.220;2023-08-06T01:02:04;16.43;;;5.50;;
4462;SDS011;2244;50.200;8.220;2023-08-06T01:04:32;16.30;;;5.07;;
4462;SDS011;2244;50.200;8.220;2023-08-06T01:07:02;15.30;;;4.50;;
4462;SDS011;2244;50.200;8.220;2023-08-06T01:12:20;16.40;;;4.63;;
4462;SDS011;2244;50.200;8.220;2023-08-06T01:14:45;17.00;;;5.13;;
4462;SDS011;2244;50.200;8.220;2023-08-06T01:17:06;15.07;;;4.30;;
4462;SDS011;2244;50.200;8.220;2023-08-06T01:19:34;19.70;;;4.77;;
4462;SDS011;2244;50.200;8.220;2023-08-06T01:22:02;15.10;;;4.97;;
4462;SDS011;2244;50.200;8.220;2023-08-06T01:24:29;17.70;;;4.67;;
4462;SDS011;2244;50.200;8.220;2023-08-06T01:27:03;16.83;;;5.00;;
4462;SDS011;2244;50.200;8.220;2023-08-06T01:29:30;16.63;;;4.30;;
4462;SDS011;2244;50.200;8.220;2023-08-06T01:31:57;14.87;;;4.40;;
4462;SDS011;2244;50.200;8.220;2023-08-06T01:34:27;15.70;;;5.00;;
4462;SDS011;2244;50.200;8.220;2023-08-06T01:36:54;14.13;;;5.00;;
4462;SDS011;2244;50.200;8.220;2023-08-06T01:39:23;15.67;;;4.23;;
4462;SDS011;2244;50.200;8.220;2023-08-06T01:41:50;19.97;;;5.07;;
4462;SDS011;2244;50.200;8.220;2023-08-06T01:44:18;22.17;;;4.50;;
4462;SDS011;2244;50.200;8.220;2023-08-06T01:46:46;17.60;;;5.37;;
4462;SDS011;2244;50.200;8.220;2023-08-06T01:49:13;18.73;;;5.47;;
4462;SDS011;2244;50.200;8.220;2023-08-06T01:51:41;21.83;;;5.50;;
4462;SDS011;2244;50.200;8.220;2023-08-06T01:54:08;16.43;;;4.87;;
4462;SDS011;2244;50.200;8.220;2023-08-06T01:56:35;17.83;;;4.90;;
4462;SDS011;2244;50.200;8.220;2023-08-06T01:59:03;18.37;;;5.93;;
4462;SDS011;2244;50.200;8.220;2023-08-06T02:01:31;19.00;;;5.50;;
4462;SDS011;2244;50.200;8.220;2023-08-06T02:03:59;17.83;;;5.10;;
4462;SDS011;2244;50.200;8.220;2023-08-06T02:06:26;17.50;;;5.67;;
4462;SDS011;2244;50.200;8.220;2023-08-06T02:08:54;22.33;;;6.53;;
4462;SDS011;2244;50.200;8.220;2023-08-06T02:11:21;17.37;;;4.33;;
4462;SDS011;2244;50.200;8.220;2023-08-06T02:13:49;18.33;;;5.87;;
4462;SDS011;2244;50.200;8.220;2023-08-06T02:16:16;16.73;;;5.10;;
4462;SDS011;2244;50.200;8.220;2023-08-06T02:18:44;18.30;;;5.50;;
4462;SDS011;2244;50.200;8.220;2023-08-06T02:21:11;16.90;;;6.27;;
4462;SDS011;2244;50.200;8.220;2023-08-06T02:23:39;18.30;;;5.70;;
4462;SDS011;2244;50.200;8.220;2023-08-06T02:26:06;20.33;;;6.60;;
4462;SDS011;2244;50.200;8.220;2023-08-06T02:28:33;16.67;;;4.67;;
4462;SDS011;2244;50.200;8.220;2023-08-06T02:31:01;18.00;;;5.60;;
4462;SDS011;2244;50.200;8.220;2023-08-06T02:33:29;19.17;;;6.07;;
4462;SDS011;2244;50.200;8.220;2023-08-06T02:36:00;17.73;;;5.80;;
4462;SDS011;2244;50.200;8.220;2023-08-06T02:38:28;17.00;;;5.50;;
4462;SDS011;2244;50.200;8.220;2023-08-06T02:40:55;19.90;;;5.10;;
4462;SDS011;2244;50.200;8.220;2023-08-06T02:43:23;19.03;;;7.10;;
4462;SDS011;2244;50.200;8.220;2023-08-06T02:45:50;19.70;;;5.93;;
4462;SDS011;2244;50.200;8.220;2023-08-06T02:48:17;19.83;;;5.87;;
4462;SDS011;2244;50.200;8.220;2023-08-06T02:50:45;19.50;;;5.77;;
4462;SDS011;2244;50.200;8.220;2023-08-06T02:53:12;17.50;;;5.10;;
4462;SDS011;2244;50.200;8.220;2023-08-06T02:55:44;19.77;;;7.33;;
4462;SDS011;2244;50.200;8.220;2023-08-06T02:58:09;18.70;;;5.80;;
4462;SDS011;2244;50.200;8.220;2023-08-06T03:00:36;16.93;;;5.30;;
4462;SDS011;2244;50.200;8.220;2023-08-06T03:03:04;18.97;;;5.60;;
4462;SDS011;2244;50.200;8.220;2023-08-06T03:05:31;20.43;;;5.70;;
4462;SDS011;2244;50.200;8.220;2023-08-06T03:07:59;20.30;;;5.77;;
4462;SDS011;2244;50.200;8.220;2023-08-06T03:10:26;19.20;;;6.00;;
4462;SDS011;2244;50.200;8.220;2023-08-06T03:12:54;20.27;;;6.10;;
4462;SDS011;2244;50.200;8.220;2023-08-06T03:15:21;19.00;;;5.73;;
4462;SDS011;2244;50.200;8.220;2023-08-06T03:17:48;19.63;;;6.30;;
4462;SDS011;2244;50.200;8.220;2023-08-06T03:20:16;19.10;;;5.70;;
4462;SDS011;2244;50.200;8.220;2023-08-06T03:22:43;16.40;;;4.97;;
4462;SDS011;2244;50.200;8.220;2023-08-06T03:25:11;18.50;;;6.33;;
4462;SDS011;2244;50.200;8.220;2023-08-06T03:27:38;18.10;;;5.87;;
4462;SDS011;2244;50.200;8.220;2023-08-06T03:30:06;19.43;;;5.70;;
4462;SDS011;2244;50.200;8.220;2023-08-06T03:32:34;18.53;;;5.60;;
4462;SDS011;2244;50.200;8.220;2023-08-06T03:35:01;19.20;;;5.90;;
4462;SDS011;2244;50.200;8.220;2023-08-06T03:37:29;17.87;;;6.80;;
4462;SDS011;2244;50.200;8.220;2023-08-06T03:39:57;17.00;;;6.37;;
4462;SDS011;2244;50.200;8.220;2023-08-06T03:42:24;18.50;;;6.17;;
4462;SDS011;2244;50.200;8.220;2023-08-06T03:44:52;18.90;;;8.50;;
4462;SDS011;2244;50.200;8.220;2023-08-06T03:47:19;20.90;;;5.70;;
4462;SDS011;2244;50.200;8.220;2023-08-06T03:49:47;20.77;;;6.00;;
4462;SDS011;2244;50.200;8.220;2023-08-06T03:52:16;17.60;;;5.60;;
4462;SDS011;2244;50.200;8.220;2023-08-06T03:54:43;19.53;;;7.13;;
4462;SDS011;2244;50.200;8.220;2023-08-06T03:57:11;23.03;;;6.13;;
4462;SDS011;2244;50.200;8.220;2023-08-06T03:59:38;21.83;;;8.63;;
4462;SDS011;2244;50.200;8.220;2023-08-06T04:02:06;19.07;;;6.70;;
4462;SDS011;2244;50.200;8.220;2023-08-06T04:04:33;21.70;;;5.73;;
4462;SDS011;2244;50.200;8.220;2023-08-06T04:07:01;19.47;;;6.03;;
4462;SDS011;2244;50.200;8.220;2023-08-06T04:09:28;19.37;;;7.67;;
4462;SDS011;2244;50.200;8.220;2023-08-06T04:11:56;23.90;;;9.40;;
4462;SDS011;2244;50.200;8.220;2023-08-06T04:14:26;17.77;;;5.30;;
4462;SDS011;2244;50.200;8.220;2023-08-06T04:16:53;22.07;;;5.67;;
4462;SDS011;2244;50.200;8.220;2023-08-06T04:19:21;18.23;;;5.00;;
4462;SDS011;2244;50.200;8.220;2023-08-06T04:21:48;18.10;;;5.30;;
4462;SDS011;2244;50.200;8.220;2023-08-06T04:24:16;19.90;;;6.03;;
4462;SDS011;2244;50.200;8.220;2023-08-06T04:26:44;20.93;;;7.60;;
4462;SDS011;2244;50.200;8.220;2023-08-06T04:29:11;18.43;;;5.80;;
4462;SDS011;2244;50.200;8.220;2023-08-06T04:31:39;21.00;;;7.23;;
4462;SDS011;2244;50.200;8.220;2023-08-06T04:34:06;18.73;;;6.10;;
4462;SDS011;2244;50.200;8.220;2023-08-06T04:36:35;21.80;;;6.40;;
4462;SDS011;2244;50.200;8.220;2023-08-06T04:39:03;22.70;;;6.97;;
4462;SDS011;2244;50.200;8.220;2023-08-06T04:41:31;18.53;;;6.57;;
4462;SDS011;2244;50.200;8.220;2023-08-06T04:43:58;18.43;;;5.33;;
4462;SDS011;2244;50.200;8.220;2023-08-06T04:46:26;20.73;;;5.90;;
4462;SDS011;2244;50.200;8.220;2023-08-06T04:48:53;20.50;;;8.33;;
4462;SDS011;2244;50.200;8.220;2023-08-06T04:51:21;17.47;;;7.20;;
4462;SDS011;2244;50.200;8.220;2023-08-06T04:53:48;20.37;;;6.73;;
4462;SDS011;2244;50.200;8.220;2023-08-06T04:56:16;17.40;;;4.30;;
4462;SDS011;2244;50.200;8.220;2023-08-06T04:58:43;17.03;;;4.57;;
4462;SDS011;2244;50.200;8.220;2023-08-06T05:01:11;18.63;;;4.20;;
4462;SDS011;2244;50.200;8.220;2023-08-06T05:03:38;21.87;;;7.00;;
4462;SDS011;2244;50.200;8.220;2023-08-06T05:06:06;16.00;;;4.90;;
4462;SDS011;2244;50.200;8.220;2023-08-06T05:08:33;15.53;;;4.80;;
4462;SDS011;2244;50.200;8.220;2023-08-06T05:11:01;15.80;;;4.30;;
4462;SDS011;2244;50.200;8.220;2023-08-06T05:13:28;15.50;;;4.03;;
4462;SDS011;2244;50.200;8.220;2023-08-06T05:15:56;17.30;;;4.60;;
4462;SDS011;2244;50.200;8.220;2023-08-06T05:18:23;13.90;;;2.80;;
4462;SDS011;2244;50.200;8.220;2023-08-06T05:20:51;14.47;;;3.13;;
4462;SDS011;2244;50.200;8.220;2023-08-06T05:23:18;13.90;;;3.67;;
4462;SDS011;2244;50.200;8.220;2023-08-06T05:25:46;14.33;;;3.50;;
4462;SDS011;2244;50.200;8.220;2023-08-06T05:28:13;14.67;;;2.93;;
4462;SDS011;2244;50.200;8.220;2023-08-06T05:30:41;13.77;;;3.40;;
4462;SDS011;2244;50.200;8.220;2023-08-06T05:33:08;14.43;;;3.27;;
4462;SDS011;2244;50.200;8.220;2023-08-06T05:35:36;15.90;;;3.07;;
4462;SDS011;2244;50.200;8.220;2023-08-06T05:38:03;14.63;;;3.07;;
4462;SDS011;2244;50.200;8.220;2023-08-06T05:40:32;15.20;;;3.70;;
4462;SDS011;2244;50.200;8.220;2023-08-06T05:43:00;14.23;;;3.10;;
4462;SDS011;2244;50.200;8.220;2023-08-06T05:45:28;14.30;;;3.47;;
4462;SDS011;2244;50.200;8.220;2023-08-06T05:47:55;13.57;;;3.37;;
4462;SDS011;2244;50.200;8.220;2023-08-06T05:50:25;13.50;;;2.70;;
4462;SDS011;2244;50.200;8.220;2023-08-06T05:52:52;13.50;;;2.50;;
4462;SDS011;2244;50.200;8.220;2023-08-06T05:55:20;14.47;;;3.00;;
4462;SDS011;2244;50.200;8.220;2023-08-06T05:57:47;13.50;;;3.77;;
4462;SDS011;2244;50.200;8.220;2023-08-06T06:00:15;14.40;;;2.07;;
4462;SDS011;2244;50.200;8.220;2023-08-06T06:02:42;13.50;;;1.70;;
4462;SDS011;2244;50.200;8.220;2023-08-06T06:05:10;13.07;;;2.37;;
4462;SDS011;2244;50.200;8.220;2023-08-06T06:07:37;13.47;;;2.20;;
4462;SDS011;2244;50.200;8.220;2023-08-06T06:10:05;14.20;;;2.00;;
4462;SDS011;2244;50.200;8.220;2023-08-06T06:12:33;13.50;;;2.40;;
4462;SDS011;2244;50.200;8.220;2023-08-06T06:15:01;15.30;;;1.83;;
4462;SDS011;2244;50.200;8.220;2023-08-06T06:17:30;14.53;;;2.40;;
4462;SDS011;2244;50.200;8.220;2023-08-06T06:19:57;13.53;;;3.10;;
4462;SDS011;2244;50.200;8.220;2023-08-06T06:22:25;12.50;;;1.77;;
4462;SDS011;2244;50.200;8.220;2023-08-06T06:24:52;13.50;;;3.17;;
4462;SDS011;2244;50.200;8.220;2023-08-06T06:27:19;13.27;;;1.70;;
4462;SDS011;2244;50.200;8.220;2023-08-06T06:29:47;12.70;;;1.67;;
4462;SDS011;2244;50.200;8.220;2023-08-06T06:32:14;12.73;;;1.90;;
4462;SDS011;2244;50.200;8.220;2023-08-06T06:34:42;12.40;;;1.37;;
4462;SDS011;2244;50.200;8.220;2023-08-06T06:37:10;13.30;;;2.87;;
4462;SDS011;2244;50.200;8.220;2023-08-06T06:39:37;16.30;;;2.03;;
4462;SDS011;2244;50.200;8.220;2023-08-06T06:42:05;13.13;;;2.27;;
4462;SDS011;2244;50.200;8.220;2023-08-06T06:44:32;12.20;;;1.90;;
4462;SDS011;2244;50.200;8.220;2023-08-06T06:47:00;12.43;;;1.83;;
4462;SDS011;2244;50.200;8.220;2023-08-06T06:49:27;12.63;;;1.90;;
4462;SDS011;2244;50.200;8.220;2023-08-06T06:51:55;14.80;;;2.00;;
4462;SDS011;2244;50.200;8.220;2023-08-06T06:54:23;12.23;;;1.13;;
4462;SDS011;2244;50.200;8.220;2023-08-06T06:56:50;12.23;;;2.00;;
4462;SDS011;2244;50.200;8.220;2023-08-06T06:59:17;12.57;;;2.63;;
4462;SDS011;2244;50.200;8.220;2023-08-06T07:01:45;13.60;;;2.87;;
4462;SDS011;2244;50.200;8.220;2023-08-06T07:04:12;12.50;;;2.03;;
4462;SDS011;2244;50.200;8.220;2023-08-06T07:06:40;13.77;;;2.33;;
4462;SDS011;2244;50.200;8.220;2023-08-06T07:09:07;13.00;;;1.90;;
4462;SDS011;2244;50.200;8.220;2023-08-06T07:11:35;12.60;;;3.10;;
4462;SDS011;2244;50.200;8.220;2023-08-06T07:14:03;12.47;;;2.27;;
4462;SDS011;2244;50.200;8.220;2023-08-06T07:16:30;13.13;;;3.00;;
4462;SDS011;2244;50.200;8.220;2023-08-06T07:18:58;12.20;;;1.60;;
4462;SDS011;2244;50.200;8.220;2023-08-06T07:21:26;12.03;;;2.33;;
4462;SDS011;2244;50.200;8.220;2023-08-06T07:23:53;12.37;;;2.57;;
4462;SDS011;2244;50.200;8.220;2023-08-06T07:26:21;13.10;;;2.30;;
4462;SDS011;2244;50.200;8.220;2023-08-06T07:28:48;12.37;;;2.30;;
4462;SDS011;2244;50.200;8.220;2023-08-06T07:31:16;14.13;;;2.47;;
4462;SDS011;2244;50.200;8.220;2023-08-06T07:33:44;13.80;;;2.23;;
4462;SDS011;2244;50.200;8.220;2023-08-06T07:36:12;16.60;;;3.40;;
4462;SDS011;2244;50.200;8.220;2023-08-06T07:38:40;14.53;;;2.07;;
4462;SDS011;2244;50.200;8.220;2023-08-06T07:41:07;13.73;;;2.70;;
4462;SDS011;2244;50.200;8.220;2023-08-06T07:43:35;14.63;;;3.30;;
4462;SDS011;2244;50.200;8.220;2023-08-06T07:46:03;13.13;;;2.80;;
4462;SDS011;2244;50.200;8.220;2023-08-06T07:48:30;13.30;;;2.20;;
4462;SDS011;2244;50.200;8.220;2023-08-06T07:50:58;14.33;;;2.07;;
4462;SDS011;2244;50.200;8.220;2023-08-06T07:53:26;14.67;;;2.90;;
4462;SDS011;2244;50.200;8.220;2023-08-06T07:55:55;12.57;;;1.97;;
4462;SDS011;2244;50.200;8.220;2023-08-06T07:58:23;15.80;;;2.37;;
4462;SDS011;2244;50.200;8.220;2023-08-06T08:00:51;15.90;;;2.07;;
4462;SDS011;2244;50.200;8.220;2023-08-06T08:03:20;11.97;;;2.30;;
4462;SDS011;2244;50.200;8.220;2023-08-06T08:05:47;11.80;;;2.37;;
4462;SDS011;2244;50.200;8.220;2023-08-06T08:08:15;11.57;;;2.00;;
4462;SDS011;2244;50.200;8.220;2023-08-06T08:10:42;11.20;;;1.60;;
4462;SDS011;2244;50.200;8.220;2023-08-06T08:13:10;12.20;;;1.90;;
4462;SDS011;2244;50.200;8.220;2023-08-06T08:15:38;11.90;;;2.00;;
4462;SDS011;2244;50.200;8.220;2023-08-06T08:18:05;11.40;;;2.00;;
4462;SDS011;2244;50.200;8.220;2023-08-06T08:20:33;11.93;;;2.47;;
4462;SDS011;2244;50.200;8.220;2023-08-06T08:23:02;11.40;;;1.60;;
4462;SDS011;2244;50.200;8.220;2023-08-06T08:25:30;11.70;;;1.83;;
4462;SDS011;2244;50.200;8.220;2023-08-06T08:27:58;11.30;;;1.30;;
4462;SDS011;2244;50.200;8.220;2023-08-06T08:30:25;11.60;;;1.33;;
4462;SDS011;2244;50.200;8.220;2023-08-06T08:32:53;11.50;;;1.83;;
4462;SDS011;2244;50.200;8.220;2023-08-06T08:35:21;12.77;;;1.60;;
4462;SDS011;2244;50.200;8.220;2023-08-06T08:37:48;13.03;;;3.07;;
4462;SDS011;2244;50.200;8.220;2023-08-06T08:40:17;11.30;;;1.10;;
4462;SDS011;2244;50.200;8.220;2023-08-06T08:42:50;13.17;;;1.40;;
4462;SDS011;2244;50.200;8.220;2023-08-06T08:45:18;13.90;;;1.70;;
4462;SDS011;2244;50.200;8.220;2023-08-06T08:51:08;12.67;;;1.27;;
4462;SDS011;2244;50.200;8.220;2023-08-06T08:53:36;14.83;;;1.90;;
4462;SDS011;2244;50.200;8.220;2023-08-06T08:56:05;12.47;;;1.43;;
4462;SDS011;2244;50.200;8.220;2023-08-06T08:58:33;12.17;;;1.50;;
4462;SDS011;2244;50.200;8.220;2023-08-06T09:01:00;11.17;;;1.20;;
4462;SDS011;2244;50.200;8.220;2023-08-06T09:03:28;11.20;;;1.53;;
4462;SDS011;2244;50.200;8.220;2023-08-06T09:05:56;12.07;;;1.90;;
4462;SDS011;2244;50.200;8.220;2023-08-06T09:08:27;11.87;;;1.10;;
4462;SDS011;2244;50.200;8.220;2023-08-06T09:10:54;12.63;;;1.93;;
4462;SDS011;2244;50.200;8.220;2023-08-06T09:13:24;12.90;;;2.07;;
4462;SDS011;2244;50.200;8.220;2023-08-06T09:15:52;11.10;;;1.20;;
4462;SDS011;2244;50.200;8.220;2023-08-06T09:18:26;11.10;;;1.07;;
4462;SDS011;2244;50.200;8.220;2023-08-06T09:20:58;12.70;;;1.90;;
4462;SDS011;2244;50.200;8.220;2023-08-06T09:23:29;11.27;;;1.27;;
4462;SDS011;2244;50.200;8.220;2023-08-06T09:25:57;12.00;;;1.50;;
4462;SDS011;2244;50.200;8.220;2023-08-06T09:28:29;11.23;;;1.50;;
4462;SDS011;2244;50.200;8.220;2023-08-06T09:30:53;11.63;;;1.33;;
4462;SDS011;2244;50.200;8.220;2023-08-06T09:33:22;10.70;;;1.17;;
4462;SDS011;2244;50.200;8.220;2023-08-06T09:35:50;10.47;;;0.97;;
4462;SDS011;2244;50.200;8.220;2023-08-06T09:38:19;12.40;;;1.60;;
4462;SDS011;2244;50.200;8.220;2023-08-06T09:40:47;10.80;;;1.00;;
4462;SDS011;2244;50.200;8.220;2023-08-06T09:43:14;12.33;;;1.23;;
4462;SDS011;2244;50.200;8.220;2023-08-06T09:45:43;10.90;;;1.23;;
4462;SDS011;2244;50.200;8.220;2023-08-06T09:48:10;10.53;;;1.10;;
4462;SDS011;2244;50.200;8.220;2023-08-06T09:50:38;10.57;;;1.00;;
4462;SDS011;2244;50.200;8.220;2023-08-06T09:53:07;10.90;;;1.30;;
4462;SDS011;2244;50.200;8.220;2023-08-06T09:55:36;10.60;;;1.17;;
4462;SDS011;2244;50.200;8.220;2023-08-06T09:58:04;10.83;;;1.10;;
4462;SDS011;2244;50.200;8.220;2023-08-06T10:00:32;11.63;;;1.00;;
4462;SDS011;2244;50.200;8.220;2023-08-06T10:03:02;11.90;;;3.33;;
4462;SDS011;2244;50.200;8.220;2023-08-06T10:05:30;11.03;;;1.70;;
4462;SDS011;2244;50.200;8.220;2023-08-06T10:07:59;11.60;;;1.13;;
4462;SDS011;2244;50.200;8.220;2023-08-06T10:10:27;11.20;;;1.43;;
4462;SDS011;2244;50.200;8.220;2023-08-06T10:12:55;10.63;;;1.10;;
4462;SDS011;2244;50.200;8.220;2023-08-06T10:15:25;11.60;;;1.00;;
4462;SDS011;2244;50.200;8.220;2023-08-06T10:17:54;11.30;;;0.90;;
4462;SDS011;2244;50.200;8.220;2023-08-06T10:20:22;11.07;;;1.77;;
4462;SDS011;2244;50.200;8.220;2023-08-06T10:23:02;11.43;;;1.53;;
4462;SDS011;2244;50.200;8.220;2023-08-06T10:25:30;12.87;;;1.30;;
4462;SDS011;2244;50.200;8.220;2023-08-06T10:27:59;11.33;;;1.70;;
4462;SDS011;2244;50.200;8.220;2023-08-06T10:30:28;13.20;;;1.90;;
4462;SDS011;2244;50.200;8.220;2023-08-06T10:32:57;11.13;;;1.30;;
4462;SDS011;2244;50.200;8.220;2023-08-06T10:35:30;10.87;;;1.00;;
4462;SDS011;2244;50.200;8.220;2023-08-06T10:40:30;12.33;;;1.90;;
4462;SDS011;2244;50.200;8.220;2023-08-06T10:42:58;11.07;;;1.50;;
4462;SDS011;2244;50.200;8.220;2023-08-06T10:45:26;11.20;;;1.83;;
4462;SDS011;2244;50.200;8.220;2023-08-06T10:47:55;10.80;;;1.23;;
4462;SDS011;2244;50.200;8.220;2023-08-06T10:50:24;12.00;;;1.10;;
4462;SDS011;2244;50.200;8.220;2023-08-06T10:52:51;10.77;;;1.10;;
4462;SDS011;2244;50.200;8.220;2023-08-06T10:55:22;14.40;;;0.83;;
4462;SDS011;2244;50.200;8.220;2023-08-06T10:57:50;11.17;;;0.97;;
4462;SDS011;2244;50.200;8.220;2023-08-06T11:00:18;11.40;;;0.77;;
4462;SDS011;2244;50.200;8.220;2023-08-06T11:02:46;15.63;;;7.07;;
4462;SDS011;2244;50.200;8.220;2023-08-06T11:05:15;11.60;;;2.93;;
4462;SDS011;2244;50.200;8.220;2023-08-06T11:07:43;13.43;;;2.37;;
4462;SDS011;2244;50.200;8.220;2023-08-06T11:10:12;12.50;;;1.93;;
4462;SDS011;2244;50.200;8.220;2023-08-06T11:12:39;14.53;;;1.60;;
4462;SDS011;2244;50.200;8.220;2023-08-06T11:15:07;16.87;;;2.40;;
4462;SDS011;2244;50.200;8.220;2023-08-06T11:17:34;12.37;;;2.80;;
4462;SDS011;2244;50.200;8.220;2023-08-06T11:20:03;12.77;;;1.83;;
4462;SDS011;2244;50.200;8.220;2023-08-06T11:22:31;12.77;;;3.03;;
4462;SDS011;2244;50.200;8.220;2023-08-06T11:24:59;11.87;;;2.20;;
4462;SDS011;2244;50.200;8.220;2023-08-06T11:27:28;17.13;;;11.10;;
4462;SDS011;2244;50.200;8.220;2023-08-06T11:29:56;12.57;;;2.80;;
4462;SDS011;2244;50.200;8.220;2023-08-06T11:32:23;13.93;;;2.80;;
4462;SDS011;2244;50.200;8.220;2023-08-06T11:34:52;11.93;;;1.73;;
4462;SDS011;2244;50.200;8.220;2023-08-06T11:37:21;24.73;;;21.33;;
4462;SDS011;2244;50.200;8.220;2023-08-06T11:39:50;16.50;;;10.37;;
4462;SDS011;2244;50.200;8.220;2023-08-06T11:42:18;14.30;;;2.07;;
4462;SDS011;2244;50.200;8.220;2023-08-06T11:44:46;13.87;;;4.97;;
4462;SDS011;2244;50.200;8.220;2023-08-06T11:47:14;11.33;;;1.83;;
4462;SDS011;2244;50.200;8.220;2023-08-06T11:49:48;18.90;;;14.40;;
4462;SDS011;2244;50.200;8.220;2023-08-06T11:52:20;12.03;;;2.83;;
4462;SDS011;2244;50.200;8.220;2023-08-06T11:54:51;13.20;;;3.40;;
4462;SDS011;2244;50.200;8.220;2023-08-06T11:57:16;11.40;;;2.03;;
4462;SDS011;2244;50.200;8.220;2023-08-06T11:59:44;18.40;;;11.13;;
4462;SDS011;2244;50.200;8.220;2023-08-06T12:02:12;11.87;;;2.60;;
4462;SDS011;2244;50.200;8.220;2023-08-06T12:04:58;11.73;;;1.70;;
4462;SDS011;2244;50.200;8.220;2023-08-06T12:07:31;12.13;;;1.73;;
4462;SDS011;2244;50.200;8.220;2023-08-06T12:09:55;11.87;;;1.93;;
4462;SDS011;2244;50.200;8.220;2023-08-06T12:12:23;11.67;;;1.80;;
4462;SDS011;2244;50.200;8.220;2023-08-06T12:14:51;11.73;;;1.70;;
4462;SDS011;2244;50.200;8.220;2023-08-06T12:17:18;12.93;;;1.87;;
4462;SDS011;2244;50.200;8.220;2023-08-06T12:19:46;12.10;;;1.80;;
4462;SDS011;2244;50.200;8.220;2023-08-06T12:22:14;11.90;;;1.73;;
4462;SDS011;2244;50.200;8.220;2023-08-06T12:24:42;11.37;;;1.77;;
4462;SDS011;2244;50.200;8.220;2023-08-06T12:27:10;11.90;;;2.17;;
4462;SDS011;2244;50.200;8.220;2023-08-06T12:29:41;13.20;;;2.20;;
4462;SDS011;2244;50.200;8.220;2023-08-06T12:32:06;13.83;;;1.93;;
4462;SDS011;2244;50.200;8.220;2023-08-06T12:34:34;13.90;;;2.23;;
4462;SDS011;2244;50.200;8.220;2023-08-06T12:37:04;11.70;;;2.07;;
4462;SDS011;2244;50.200;8.220;2023-08-06T12:39:31;12.30;;;2.27;;
4462;SDS011;2244;50.200;8.220;2023-08-06T12:41:59;13.90;;;3.73;;
4462;SDS011;2244;50.200;8.220;2023-08-06T12:44:28;11.43;;;1.70;;
4462;SDS011;2244;50.200;8.220;2023-08-06T12:46:56;13.07;;;1.87;;
4462;SDS011;2244;50.200;8.220;2023-08-06T12:49:25;12.13;;;2.07;;
4462;SDS011;2244;50.200;8.220;2023-08-06T12:51:53;11.70;;;1.90;;
4462;SDS011;2244;50.200;8.220;2023-08-06T12:54:21;12.00;;;2.30;;
4462;SDS011;2244;50.200;8.220;2023-08-06T12:56:48;11.70;;;1.90;;
4462;SDS011;2244;50.200;8.220;2023-08-06T12:59:17;19.73;;;11.80;;
4462;SDS011;2244;50.200;8.220;2023-08-06T13:01:45;12.10;;;2.73;;
4462;SDS011;2244;50.200;8.220;2023-08-06T13:04:12;11.97;;;2.07;;
4462;SDS011;2244;50.200;8.220;2023-08-06T13:06:41;12.17;;;2.93;;
4462;SDS011;2244;50.200;8.220;2023-08-06T13:09:09;12.77;;;2.33;;
4462;SDS011;2244;50.200;8.220;2023-08-06T13:11:37;11.33;;;1.30;;
4462;SDS011;2244;50.200;8.220;2023-08-06T13:14:06;11.63;;;2.13;;
4462;SDS011;2244;50.200;8.220;2023-08-06T13:16:34;12.80;;;2.03;;
4462;SDS011;2244;50.200;8.220;2023-08-06T13:19:01;12.40;;;1.97;;
4462;SDS011;2244;50.200;8.220;2023-08-06T13:21:33;11.47;;;1.53;;
4462;SDS011;2244;50.200;8.220;2023-08-06T13:24:02;14.57;;;1.70;;
4462;SDS011;2244;50.200;8.220;2023-08-06T13:26:30;11.70;;;1.93;;
4462;SDS011;2244;50.200;8.220;2023-08-06T13:28:58;11.30;;;1.97;;
4462;SDS011;2244;50.200;8.220;2023-08-06T13:31:26;12.27;;;1.93;;
4462;SDS011;2244;50.200;8.220;2023-08-06T13:33:54;14.20;;;2.23;;
4462;SDS011;2244;50.200;8.220;2023-08-06T13:36:22;11.33;;;1.80;;
4462;SDS011;2244;50.200;8.220;2023-08-06T13:38:49;13.20;;;1.93;;
4462;SDS011;2244;50.200;8.220;2023-08-06T13:41:17;11.40;;;1.83;;
4462;SDS011;2244;50.200;8.220;2023-08-06T13:43:44;12.60;;;1.63;;
4462;SDS011;2244;50.200;8.220;2023-08-06T13:46:12;12.33;;;2.17;;
4462;SDS011;2244;50.200;8.220;2023-08-06T13:48:47;11.53;;;2.20;;
4462;SDS011;2244;50.200;8.220;2023-08-06T13:51:16;12.03;;;2.17;;
4462;SDS011;2244;50.200;8.220;2023-08-06T13:53:44;11.60;;;1.10;;
4462;SDS011;2244;50.200;8.220;2023-08-06T13:56:12;13.23;;;1.70;;
4462;SDS011;2244;50.200;8.220;2023-08-06T13:58:41;15.70;;;9.30;;
4462;SDS011;2244;50.200;8.220;2023-08-06T14:01:11;11.50;;;1.70;;
4462;SDS011;2244;50.200;8.220;2023-08-06T14:03:40;12.23;;;3.37;;
4462;SDS011;2244;50.200;8.220;2023-08-06T14:06:07;13.13;;;1.43;;
4462;SDS011;2244;50.200;8.220;2023-08-06T14:08:35;14.27;;;1.70;;
4462;SDS011;2244;50.200;8.220;2023-08-06T14:11:02;12.93;;;1.63;;
4462;SDS011;2244;50.200;8.220;2023-08-06T14:13:30;10.87;;;1.10;;
4462;SDS011;2244;50.200;8.220;2023-08-06T14:15:57;11.50;;;1.20;;
4462;SDS011;2244;50.200;8.220;2023-08-06T14:18:25;11.00;;;1.43;;
4462;SDS011;2244;50.200;8.220;2023-08-06T14:20:52;14.10;;;3.10;;
4462;SDS011;2244;50.200;8.220;2023-08-06T14:23:20;11.40;;;1.67;;
4462;SDS011;2244;50.200;8.220;2023-08-06T14:25:47;12.20;;;2.10;;
4462;SDS011;2244;50.200;8.220;2023-08-06T14:28:14;37.83;;;34.57;;
4462;SDS011;2244;50.200;8.220;2023-08-06T14:30:42;11.20;;;1.67;;
4462;SDS011;2244;50.200;8.220;2023-08-06T14:33:09;12.30;;;1.40;;
4462;SDS011;2244;50.200;8.220;2023-08-06T14:35:38;12.57;;;2.20;;
4462;SDS011;2244;50.200;8.220;2023-08-06T14:38:06;11.70;;;1.87;;
4462;SDS011;2244;50.200;8.220;2023-08-06T14:40:33;11.70;;;1.53;;
4462;SDS011;2244;50.200;8.220;2023-08-06T14:43:03;11.10;;;1.87;;
4462;SDS011;2244;50.200;8.220;2023-08-06T14:45:31;12.03;;;1.07;;
4462;SDS011;2244;50.200;8.220;2023-08-06T14:47:58;11.60;;;1.70;;
4462;SDS011;2244;50.200;8.220;2023-08-06T14:50:26;10.97;;;1.10;;
4462;SDS011;2244;50.200;8.220;2023-08-06T14:52:54;11.00;;;1.20;;
4462;SDS011;2244;50.200;8.220;2023-08-06T14:55:24;11.63;;;1.47;;
4462;SDS011;2244;50.200;8.220;2023-08-06T14:57:52;14.27;;;1.60;;
4462;SDS011;2244;50.200;8.220;2023-08-06T15:00:20;11.80;;;1.40;;
4462;SDS011;2244;50.200;8.220;2023-08-06T15:02:47;12.10;;;1.80;;
4462;SDS011;2244;50.200;8.220;2023-08-06T15:05:15;18.37;;;14.37;;
4462;SDS011;2244;50.200;8.220;2023-08-06T15:07:43;16.10;;;3.40;;
4462;SDS011;2244;50.200;8.220;2023-08-06T15:10:10;12.30;;;2.20;;
4462;SDS011;2244;50.200;8.220;2023-08-06T15:12:39;11.80;;;1.60;;